createdAt,value
2019-01-11T00:01:01.594Z,1.36
2019-01-11T00:03:34.554Z,1.37
2019-01-11T00:06:07.644Z,1.37
2019-01-11T00:08:42.040Z,1.37
2019-01-11T00:11:15.273Z,1.39
2019-01-11T00:13:48.187Z,1.38
2019-01-11T00:16:21.789Z,1.37
2019-01-11T00:18:55.362Z,1.36
2019-01-11T00:21:28.860Z,1.35
2019-01-11T00:24:03.609Z,1.36
2019-01-11T00:26:37.119Z,1.36
2019-01-11T00:29:10.035Z,1.37
2019-01-11T00:31:44.659Z,1.39
2019-01-11T00:34:18.335Z,1.40
2019-01-11T00:36:51.351Z,1.41
2019-01-11T00:39:24.683Z,1.42
2019-01-11T00:41:57.765Z,1.44
2019-01-11T00:44:30.720Z,1.45
2019-01-11T00:47:04.424Z,1.44
2019-01-11T00:49:37.492Z,1.44
2019-01-11T00:52:12.397Z,1.43
2019-01-11T00:54:45.923Z,1.43
2019-01-11T00:57:18.902Z,1.42
2019-01-11T00:59:52.008Z,1.43
2019-01-11T01:02:25.492Z,1.42
2019-01-11T01:04:58.378Z,1.44
2019-01-11T01:07:32.072Z,1.44
2019-01-11T01:10:07.267Z,1.44
2019-01-11T01:12:40.971Z,1.43
2019-01-11T01:15:16.124Z,1.44
2019-01-11T01:17:49.631Z,1.44
2019-01-11T01:20:22.691Z,1.44
2019-01-11T01:22:55.809Z,1.43
2019-01-11T01:25:29.072Z,1.45
2019-01-11T01:28:02.252Z,1.44
2019-01-11T01:30:35.228Z,1.44
2019-01-11T01:33:08.864Z,1.45
2019-01-11T01:35:41.767Z,1.43
2019-01-11T01:38:14.818Z,1.41
2019-01-11T01:40:48.333Z,1.41
2019-01-11T01:43:21.407Z,1.40
2019-01-11T01:45:54.293Z,1.40
2019-01-11T01:48:28.138Z,1.39
2019-01-11T01:51:01.312Z,1.38
2019-01-11T01:53:34.307Z,1.37
2019-01-11T01:56:07.789Z,1.34
2019-01-11T01:58:50.033Z,1.32
2019-01-11T02:01:24.049Z,1.30
2019-01-11T02:03:57.447Z,1.27
2019-01-11T02:06:30.570Z,1.27
2019-01-11T02:09:06.701Z,1.26
2019-01-11T02:11:39.935Z,1.26
2019-01-11T02:14:13.741Z,1.26
2019-01-11T02:16:47.764Z,1.25
2019-01-11T02:19:20.682Z,1.26
2019-01-11T02:21:54.084Z,1.24
2019-01-11T02:24:27.071Z,1.21
2019-01-11T02:27:00.103Z,1.20
2019-01-11T02:29:33.915Z,1.20
2019-01-11T02:32:07.086Z,1.20
2019-01-11T02:34:40.840Z,1.19
2019-01-11T02:37:14.334Z,1.20
2019-01-11T02:39:47.476Z,1.19
2019-01-11T02:42:20.702Z,1.19
2019-01-11T02:44:54.257Z,1.20
2019-01-11T02:47:27.153Z,1.21
2019-01-11T02:50:00.428Z,1.22
2019-01-11T02:52:34.065Z,1.21
2019-01-11T02:55:08.230Z,1.19
2019-01-11T02:57:41.417Z,1.18
2019-01-11T03:00:19.480Z,1.18
2019-01-11T03:02:52.604Z,1.17
2019-01-11T03:05:26.351Z,1.19
2019-01-11T03:07:59.772Z,1.19
2019-01-11T03:10:32.727Z,1.19
2019-01-11T03:13:05.754Z,1.20
2019-01-11T03:15:39.336Z,1.21
2019-01-11T03:18:12.273Z,1.22
2019-01-11T03:20:45.542Z,1.22
2019-01-11T03:23:19.172Z,1.23
2019-01-11T03:25:52.071Z,1.26
2019-01-11T03:28:25.001Z,1.26
2019-01-11T03:31:05.194Z,1.26
2019-01-11T03:33:38.183Z,1.25
2019-01-11T03:36:11.309Z,1.27
2019-01-11T03:38:44.760Z,1.26
2019-01-11T03:41:17.804Z,1.27
2019-01-11T03:43:50.744Z,1.27
2019-01-11T03:46:25.254Z,1.27
2019-01-11T03:48:58.165Z,1.29
2019-01-11T03:51:31.393Z,1.30
2019-01-11T03:54:04.880Z,1.30
2019-01-11T03:56:37.875Z,1.31
2019-01-11T03:59:11.759Z,1.33
2019-01-11T04:01:45.086Z,1.33
2019-01-11T04:04:17.908Z,1.36
2019-01-11T04:06:50.894Z,1.37
2019-01-11T04:09:24.279Z,1.37
2019-01-11T04:11:58.879Z,1.39
2019-01-11T04:14:31.704Z,1.42
2019-01-11T04:17:05.133Z,1.44
2019-01-11T04:19:39.018Z,1.45
2019-01-11T04:22:31.427Z,1.48
2019-01-11T04:25:09.806Z,1.49
2019-01-11T04:27:44.049Z,1.52
2019-01-11T04:30:21.650Z,1.54
2019-01-11T04:32:54.568Z,1.56
2019-01-11T04:35:27.524Z,1.56
2019-01-11T04:38:02.266Z,1.59
2019-01-11T04:40:35.113Z,1.61
2019-01-11T04:43:08.154Z,1.62
2019-01-11T04:45:41.561Z,1.64
2019-01-11T04:48:14.842Z,1.66
2019-01-11T04:50:47.756Z,1.68
2019-01-11T04:53:22.250Z,1.70
2019-01-11T04:55:55.154Z,1.73
2019-01-11T04:58:28.721Z,1.74
2019-01-11T05:01:02.151Z,1.76
2019-01-11T05:03:35.241Z,1.77
2019-01-11T05:06:08.168Z,1.78
2019-01-11T05:08:41.723Z,1.80
2019-01-11T05:11:14.759Z,1.81
2019-01-11T05:13:52.565Z,1.82
2019-01-11T05:16:25.759Z,1.82
2019-01-11T05:19:06.272Z,1.84
2019-01-11T05:21:39.307Z,1.86
2019-01-11T05:24:12.327Z,1.88
2019-01-11T05:26:45.650Z,1.90
2019-01-11T05:29:18.740Z,1.91
2019-01-11T05:31:51.701Z,1.92
2019-01-11T05:34:25.723Z,1.93
2019-01-11T05:36:59.630Z,1.96
2019-01-11T05:39:32.629Z,1.97
2019-01-11T05:42:10.877Z,1.98
2019-01-11T05:44:44.860Z,2.01
2019-01-11T05:47:17.844Z,2.02
2019-01-11T05:49:51.013Z,2.03
2019-01-11T05:52:24.027Z,2.03
2019-01-11T05:54:56.958Z,2.04
2019-01-11T05:57:30.373Z,2.07
2019-01-11T06:00:04.959Z,2.08
2019-01-11T06:02:38.082Z,2.10
2019-01-11T06:05:12.055Z,2.10
2019-01-11T06:07:50.346Z,2.11
2019-01-11T06:10:23.322Z,2.12
2019-01-11T06:12:56.668Z,2.14
2019-01-11T06:15:30.165Z,2.17
2019-01-11T06:18:03.056Z,2.17
2019-01-11T06:20:38.136Z,2.18
2019-01-11T06:23:10.995Z,2.18
2019-01-11T06:25:44.502Z,2.20
2019-01-11T06:28:17.785Z,2.22
2019-01-11T06:30:51.049Z,2.23
2019-01-11T06:33:24.545Z,2.24
2019-01-11T06:35:57.489Z,2.25
2019-01-11T06:38:30.959Z,2.27
2019-01-11T06:41:05.860Z,2.27
2019-01-11T06:43:39.868Z,2.28
2019-01-11T06:46:13.619Z,2.30
2019-01-11T06:48:48.634Z,2.31
2019-01-11T06:51:22.924Z,2.34
2019-01-11T06:53:55.887Z,2.35
2019-01-11T06:56:29.454Z,2.37
2019-01-11T06:59:09.318Z,2.38
2019-01-11T07:01:42.424Z,2.38
2019-01-11T07:04:16.768Z,2.39
2019-01-11T07:06:49.792Z,2.40
2019-01-11T07:09:22.744Z,2.42
2019-01-11T07:11:59.502Z,2.43
2019-01-11T07:14:32.404Z,2.43
2019-01-11T07:17:06.620Z,2.45
2019-01-11T07:19:40.020Z,2.47
2019-01-11T07:22:13.071Z,2.49
2019-01-11T07:24:46.012Z,2.49
2019-01-11T07:27:19.293Z,2.52
2019-01-11T07:29:52.190Z,2.54
2019-01-11T07:32:25.187Z,2.55
2019-01-11T07:34:59.684Z,2.56
2019-01-11T07:37:37.999Z,2.57
2019-01-11T07:40:12.131Z,2.58
2019-01-11T07:42:45.127Z,2.58
2019-01-11T07:45:17.475Z,2.60
2019-01-11T07:47:50.852Z,2.59
2019-01-11T07:50:24.533Z,2.62
2019-01-11T07:52:58.370Z,2.64
2019-01-11T07:55:31.710Z,2.67
2019-01-11T07:58:04.992Z,2.67
2019-01-11T08:00:38.841Z,2.69
2019-01-11T08:03:12.337Z,2.70
2019-01-11T08:05:46.670Z,2.71
2019-01-11T08:08:20.410Z,2.74
2019-01-11T08:10:54.840Z,2.75
2019-01-11T08:13:27.732Z,2.79
2019-01-11T08:16:01.386Z,2.80
2019-01-11T08:18:34.731Z,2.81
2019-01-11T08:21:08.343Z,2.84
2019-01-11T08:23:41.689Z,2.86
2019-01-11T08:26:14.712Z,2.87
2019-01-11T08:28:47.804Z,2.90
2019-01-11T08:31:22.415Z,2.92
2019-01-11T08:33:55.497Z,2.93
2019-01-11T08:36:28.475Z,2.94
2019-01-11T08:39:01.990Z,2.95
2019-01-11T08:41:35.038Z,2.96
2019-01-11T08:44:08.433Z,2.98
2019-01-11T08:46:41.804Z,3.00
2019-01-11T08:49:14.563Z,3.01
2019-01-11T08:51:47.568Z,3.03
2019-01-11T08:54:25.388Z,3.03
2019-01-11T08:57:00.644Z,3.04
2019-01-11T08:59:33.534Z,3.05
2019-01-11T09:02:06.603Z,3.07
2019-01-11T09:04:39.497Z,3.09
2019-01-11T09:07:12.629Z,3.13
2019-01-11T09:09:45.482Z,3.16
2019-01-11T09:12:20.734Z,3.20
2019-01-11T09:15:00.566Z,3.22
2019-01-11T09:17:41.030Z,3.25
2019-01-11T09:20:14.044Z,3.29
2019-01-11T09:22:47.031Z,3.30
2019-01-11T09:25:20.514Z,3.32
2019-01-11T09:27:53.425Z,3.31
2019-01-11T09:30:26.572Z,3.30
2019-01-11T09:33:00.163Z,3.30
2019-01-11T09:35:33.220Z,3.32
2019-01-11T09:38:06.587Z,3.34
2019-01-11T09:40:40.650Z,3.35
2019-01-11T09:43:13.704Z,3.37
2019-01-11T09:45:46.706Z,3.39
2019-01-11T09:48:20.272Z,3.42
2019-01-11T09:50:53.262Z,3.43
2019-01-11T09:53:26.255Z,3.45
2019-01-11T09:56:01.833Z,3.48
2019-01-11T09:58:34.885Z,3.51
2019-01-11T10:01:08.447Z,3.53
2019-01-11T10:03:41.984Z,3.55
2019-01-11T10:06:15.091Z,3.57
2019-01-11T10:08:48.432Z,3.56
2019-01-11T10:11:22.021Z,3.58
2019-01-11T10:13:54.989Z,3.60
2019-01-11T10:16:27.994Z,3.61
2019-01-11T10:19:01.829Z,3.64
2019-01-11T10:21:34.808Z,3.67
2019-01-11T10:24:08.083Z,3.69
2019-01-11T10:26:41.308Z,3.69
2019-01-11T10:29:15.040Z,3.74
2019-01-11T10:31:48.030Z,3.87
2019-01-11T10:34:21.680Z,3.90
2019-01-11T10:36:55.387Z,3.92
2019-01-11T10:39:28.794Z,3.93
2019-01-11T10:42:02.256Z,3.96
2019-01-11T10:44:35.543Z,4.01
2019-01-11T10:47:09.435Z,4.02
2019-01-11T10:49:42.838Z,4.03
2019-01-11T10:52:15.857Z,4.07
2019-01-11T10:54:48.839Z,4.13
2019-01-11T10:57:24.844Z,4.21
2019-01-11T11:00:00.904Z,4.28
2019-01-11T11:02:35.206Z,4.33
2019-01-11T11:05:08.933Z,4.32
2019-01-11T11:07:42.243Z,4.31
2019-01-11T11:10:15.696Z,4.31
2019-01-11T11:12:49.197Z,4.34
2019-01-11T11:15:23.147Z,4.37
2019-01-11T11:17:56.450Z,4.40
2019-01-11T11:20:30.490Z,4.40
2019-01-11T11:23:03.499Z,4.36
2019-01-11T11:25:37.358Z,4.35
2019-01-11T11:28:11.369Z,4.40
2019-01-11T11:30:44.331Z,4.43
2019-01-11T11:33:17.575Z,4.47
2019-01-11T11:35:51.337Z,4.54
2019-01-11T11:38:24.383Z,4.55
2019-01-11T11:40:58.188Z,4.58
2019-01-11T11:43:31.914Z,4.59
2019-01-11T11:46:06.310Z,4.58
2019-01-11T11:48:39.777Z,4.59
2019-01-11T11:51:12.531Z,4.61
2019-01-11T11:53:46.452Z,4.63
2019-01-11T11:56:20.153Z,4.66
2019-01-11T11:58:55.634Z,4.74
2019-01-11T12:01:30.433Z,4.77
2019-01-11T12:04:05.751Z,4.80
2019-01-11T12:06:40.497Z,4.83
2019-01-11T12:09:13.625Z,4.87
2019-01-11T12:11:47.092Z,4.89
2019-01-11T12:14:20.581Z,4.93
2019-01-11T12:16:55.868Z,4.98
2019-01-11T12:19:31.506Z,5.01
2019-01-11T12:22:05.242Z,5.04
2019-01-11T12:24:39.082Z,5.08
2019-01-11T12:27:12.430Z,5.11
2019-01-11T12:29:45.446Z,5.12
2019-01-11T12:32:19.701Z,5.14
2019-01-11T12:34:52.832Z,5.13
2019-01-11T12:37:26.509Z,5.14
2019-01-11T12:40:01.559Z,5.15
2019-01-11T12:42:35.001Z,5.16
2019-01-11T12:45:11.771Z,5.18
2019-01-11T12:47:44.797Z,5.18
2019-01-11T12:50:23.807Z,5.19
2019-01-11T12:52:56.862Z,5.22
2019-01-11T12:55:30.076Z,5.24
2019-01-11T12:58:04.875Z,5.26
2019-01-11T13:00:43.280Z,5.27
2019-01-11T13:03:19.745Z,5.33
2019-01-11T13:05:53.636Z,5.33
2019-01-11T13:08:28.087Z,5.33
2019-01-11T13:11:02.073Z,5.34
2019-01-11T13:13:35.076Z,5.35
2019-01-11T13:16:08.494Z,5.37
2019-01-11T13:18:42.714Z,5.36
2019-01-11T13:21:16.943Z,5.38
2019-01-11T13:23:50.531Z,5.41
2019-01-11T13:26:24.788Z,5.42
2019-01-11T13:29:01.457Z,5.48
2019-01-11T13:31:35.829Z,5.52
2019-01-11T13:34:09.083Z,5.58
2019-01-11T13:36:42.428Z,5.63
2019-01-11T13:39:18.262Z,5.67
2019-01-11T13:41:52.034Z,5.73
2019-01-11T13:44:25.106Z,5.77
2019-01-11T13:46:59.442Z,5.83
2019-01-11T13:49:32.501Z,5.89
2019-01-11T13:52:07.257Z,5.94
2019-01-11T13:54:40.496Z,6.02
2019-01-11T13:57:13.438Z,6.08
2019-01-11T13:59:46.866Z,6.10
2019-01-11T14:02:20.481Z,6.14
2019-01-11T14:04:56.015Z,6.17
2019-01-11T14:07:33.799Z,6.18
2019-01-11T14:10:08.090Z,6.20
2019-01-11T14:12:42.932Z,6.24
2019-01-11T14:15:18.793Z,6.26
2019-01-11T14:17:52.561Z,6.27
2019-01-11T14:20:25.642Z,6.28
2019-01-11T14:22:59.127Z,6.31
2019-01-11T14:25:32.272Z,6.33
2019-01-11T14:28:06.702Z,6.36
2019-01-11T14:30:41.117Z,6.38
2019-01-11T14:33:14.296Z,6.43
2019-01-11T14:35:47.332Z,6.48
2019-01-11T14:38:21.163Z,6.53
2019-01-11T14:40:54.274Z,6.54
2019-01-11T14:43:27.854Z,6.57
2019-01-11T14:46:01.711Z,6.59
2019-01-11T14:48:34.725Z,6.63
2019-01-11T14:51:08.337Z,6.70
2019-01-11T14:53:42.204Z,6.74
2019-01-11T14:56:16.213Z,6.77
2019-01-11T14:58:54.708Z,6.80
2019-01-11T15:01:29.043Z,6.84
2019-01-11T15:04:02.700Z,6.85
2019-01-11T15:06:44.282Z,6.87
2019-01-11T15:09:17.605Z,6.91
2019-01-11T15:11:51.692Z,6.92
2019-01-11T15:14:25.080Z,6.92
2019-01-11T15:16:58.030Z,6.93
2019-01-11T15:19:31.244Z,6.97
2019-01-11T15:22:19.622Z,6.96
2019-01-11T15:24:54.790Z,6.97
2019-01-11T15:27:27.784Z,6.98
2019-01-11T15:30:10.260Z,6.99
2019-01-11T15:32:51.926Z,7.00
2019-01-11T15:35:25.034Z,7.00
2019-01-11T15:37:58.547Z,7.05
2019-01-11T15:40:36.894Z,7.07
2019-01-11T15:43:13.060Z,7.07
2019-01-11T15:45:48.354Z,7.07
2019-01-11T15:48:48.545Z,7.08
2019-01-11T15:51:29.504Z,7.10
2019-01-11T15:54:04.107Z,7.11
2019-01-11T15:56:40.235Z,7.11
2019-01-11T15:59:13.211Z,7.09
2019-01-11T16:01:53.765Z,7.11
2019-01-11T16:04:28.665Z,7.09
2019-01-11T16:07:04.244Z,7.11
2019-01-11T16:09:57.148Z,7.10
2019-01-11T16:12:50.592Z,7.09
2019-01-11T16:15:48.312Z,7.10
2019-01-11T16:18:28.783Z,7.12
2019-01-11T16:21:02.810Z,7.15
2019-01-11T16:23:35.989Z,7.14
2019-01-11T16:26:11.565Z,7.15
2019-01-11T16:28:46.637Z,7.16
2019-01-11T16:31:19.626Z,7.19
2019-01-11T16:33:53.643Z,7.17
2019-01-11T16:36:26.859Z,7.16
2019-01-11T16:38:59.790Z,7.17
2019-01-11T16:41:33.361Z,7.19
2019-01-11T16:44:14.042Z,7.18
2019-01-11T16:46:47.840Z,7.21
2019-01-11T16:49:21.637Z,7.21
2019-01-11T16:51:57.406Z,7.18
2019-01-11T16:54:30.435Z,7.17
2019-01-11T16:57:04.164Z,7.18
2019-01-11T16:59:38.016Z,7.17
2019-01-11T17:02:11.259Z,7.17
2019-01-11T17:04:46.338Z,7.16
2019-01-11T17:07:19.517Z,7.17
2019-01-11T17:09:53.703Z,7.20
2019-01-11T17:12:27.060Z,7.19
2019-01-11T17:15:00.225Z,7.16
2019-01-11T17:17:35.264Z,7.17
2019-01-11T17:20:15.327Z,7.17
2019-01-11T17:22:52.935Z,7.17
2019-01-11T17:25:27.060Z,7.20
2019-01-11T17:28:00.603Z,7.19
2019-01-11T17:30:33.059Z,7.21
2019-01-11T17:33:07.581Z,7.19
2019-01-11T17:35:42.056Z,7.21
2019-01-11T17:38:16.032Z,7.20
2019-01-11T17:40:50.294Z,7.20
2019-01-11T17:43:23.826Z,7.22
2019-01-11T17:45:56.917Z,7.21
2019-01-11T17:48:29.805Z,7.15
2019-01-11T17:51:03.652Z,7.14
2019-01-11T17:53:38.034Z,7.16
2019-01-11T17:56:11.116Z,7.16
2019-01-11T17:58:45.613Z,7.19
2019-01-11T18:01:19.505Z,7.17
2019-01-11T18:05:14.629Z,7.21
2019-01-11T18:07:48.619Z,7.19
2019-01-11T18:10:22.238Z,7.16
2019-01-11T18:12:57.222Z,7.14
2019-01-11T18:15:31.065Z,7.14
2019-01-11T18:18:04.388Z,7.12
2019-01-11T18:20:37.819Z,7.12
2019-01-11T18:23:10.998Z,7.12
2019-01-11T18:25:44.549Z,7.10
2019-01-11T18:28:18.579Z,7.14
2019-01-11T18:30:51.979Z,7.15
2019-01-11T18:33:25.715Z,7.14
2019-01-11T18:36:00.287Z,7.12
2019-01-11T18:38:33.518Z,7.08
2019-01-11T18:41:07.453Z,7.10
2019-01-11T18:43:43.969Z,7.12
2019-01-11T18:46:17.131Z,7.10
2019-01-11T18:48:51.078Z,7.08
2019-01-11T18:51:24.629Z,7.07
2019-01-11T18:53:57.794Z,7.07
2019-01-11T18:56:31.917Z,7.07
2019-01-11T18:59:06.264Z,7.09
2019-01-11T19:01:40.326Z,7.06
2019-01-11T19:04:13.751Z,7.04
2019-01-11T19:06:54.084Z,7.05
2019-01-11T19:09:28.586Z,7.05
2019-01-11T19:12:02.484Z,7.06
2019-01-11T19:14:36.033Z,7.05
2019-01-11T19:17:13.301Z,7.02
2019-01-11T19:19:46.749Z,6.98
2019-01-11T19:22:21.122Z,6.97
2019-01-11T19:24:55.021Z,6.97
2019-01-11T19:27:28.034Z,6.99
2019-01-11T19:30:03.145Z,6.98
2019-01-11T19:32:36.286Z,6.98
2019-01-11T19:35:09.538Z,7.01
2019-01-11T19:37:44.165Z,6.99
2019-01-11T19:40:20.505Z,6.99
2019-01-11T19:42:54.170Z,6.99
2019-01-11T19:45:32.417Z,7.00
2019-01-11T19:48:10.691Z,7.01
2019-01-11T19:50:46.120Z,6.99
2019-01-11T19:53:19.575Z,7.02
2019-01-11T19:55:58.773Z,6.97
2019-01-11T19:58:33.237Z,6.99
2019-01-11T20:01:09.503Z,6.96
2019-01-11T20:03:43.102Z,6.96
2019-01-11T20:06:17.088Z,6.97
2019-01-11T20:08:55.286Z,6.99
2019-01-11T20:11:31.576Z,6.95
2019-01-11T20:14:06.001Z,6.97
2019-01-11T20:16:39.069Z,6.95
2019-01-11T20:19:12.081Z,6.94
2019-01-11T20:21:45.678Z,6.93
2019-01-11T20:24:19.708Z,6.93
2019-01-11T20:26:54.479Z,6.92
2019-01-11T20:29:28.192Z,6.92
2019-01-11T20:32:01.448Z,6.90
2019-01-11T20:34:35.345Z,6.91
2019-01-11T20:37:26.123Z,6.90
2019-01-11T20:39:59.350Z,6.94
2019-01-11T20:42:32.567Z,6.95
2019-01-11T20:45:10.811Z,6.95
2019-01-11T20:47:47.132Z,6.92
2019-01-11T20:50:25.068Z,6.90
2019-01-11T20:52:59.801Z,6.88
2019-01-11T20:55:36.090Z,6.91
2019-01-11T20:58:10.363Z,6.92
2019-01-11T21:00:44.281Z,6.91
2019-01-11T21:03:18.079Z,6.88
2019-01-11T21:05:51.209Z,6.89
2019-01-11T21:08:26.602Z,6.86
2019-01-11T21:10:59.790Z,6.84
2019-01-11T21:13:32.967Z,6.85
2019-01-11T21:16:07.057Z,6.83
2019-01-11T21:18:40.109Z,6.84
2019-01-11T21:21:13.294Z,6.83
2019-01-11T21:23:48.832Z,6.85
2019-01-11T21:26:23.279Z,6.83
2019-01-11T21:28:56.359Z,6.83
2019-01-11T21:31:32.019Z,6.85
2019-01-11T21:34:05.788Z,6.83
2019-01-11T21:36:39.484Z,6.85
2019-01-11T21:39:15.295Z,6.84
2019-01-11T21:41:48.264Z,6.82
2019-01-11T21:44:24.133Z,6.80
2019-01-11T21:46:58.834Z,6.79
2019-01-11T21:49:32.875Z,6.77
2019-01-11T21:52:06.723Z,6.82
2019-01-11T21:54:40.397Z,6.81
2019-01-11T21:57:13.407Z,6.82
2019-01-11T21:59:47.320Z,6.80
2019-01-11T22:02:22.524Z,6.77
2019-01-11T22:04:56.359Z,6.77
2019-01-11T22:07:29.801Z,6.78
2019-01-11T22:10:05.362Z,6.78
2019-01-11T22:12:39.824Z,6.77
2019-01-11T22:15:21.459Z,6.75
2019-01-11T22:17:54.768Z,6.76
2019-01-11T22:20:28.420Z,6.74
2019-01-11T22:23:01.594Z,6.75
2019-01-11T22:25:34.635Z,6.75
2019-01-11T22:28:07.799Z,6.78
2019-01-11T22:30:41.419Z,6.78
2019-01-11T22:33:15.050Z,6.77
2019-01-11T22:35:49.039Z,6.75
2019-01-11T22:38:23.572Z,6.73
2019-01-11T22:40:56.655Z,6.73
2019-01-11T22:43:30.561Z,6.73
2019-01-11T22:46:06.686Z,6.74
2019-01-11T22:48:39.685Z,6.71
2019-01-11T22:51:12.716Z,6.70
2019-01-11T22:53:47.035Z,6.70
2019-01-11T22:56:22.159Z,6.70
2019-01-11T22:58:56.985Z,6.70
2019-01-11T23:02:12.825Z,6.70
2019-01-11T23:04:47.765Z,6.71
2019-01-11T23:07:46.413Z,6.69
2019-01-11T23:10:51.440Z,6.66
2019-01-11T23:13:25.248Z,6.68
2019-01-11T23:16:10.585Z,6.66
2019-01-11T23:18:44.156Z,6.64
2019-01-11T23:21:17.761Z,6.64
2019-01-11T23:23:53.641Z,6.61
2019-01-11T23:26:26.667Z,6.59
2019-01-11T23:29:00.054Z,6.60
2019-01-11T23:31:33.670Z,6.61
2019-01-11T23:34:06.820Z,6.58
2019-01-11T23:36:40.166Z,6.59
2019-01-11T23:39:14.585Z,6.61
2019-01-11T23:41:47.635Z,6.57
2019-01-11T23:44:21.370Z,6.56
2019-01-11T23:46:55.932Z,6.55
2019-01-11T23:49:29.615Z,6.55
2019-01-11T23:52:04.684Z,6.54
2019-01-11T23:54:38.276Z,6.52
2019-01-11T23:57:11.259Z,6.49
2019-01-11T23:59:44.268Z,6.49
